createdAt,value
2023-02-06T00:00:51.391Z,103250.59
2023-02-06T00:03:19.970Z,103249.28
2023-02-06T00:05:57.261Z,103249.59
2023-02-06T00:08:24.408Z,103253.78
2023-02-06T00:10:50.926Z,103249.81
2023-02-06T00:13:17.841Z,103247.50
2023-02-06T00:15:44.822Z,103232.41
2023-02-06T00:18:11.591Z,103232.69
2023-02-06T00:20:38.764Z,103224.53
2023-02-06T00:23:05.426Z,103223.38
2023-02-06T00:25:32.080Z,103230.63
2023-02-06T00:27:58.811Z,103229.19
2023-02-06T00:30:25.343Z,103233.28
2023-02-06T00:32:52.096Z,103235.47
2023-02-06T00:35:18.757Z,103234.59
2023-02-06T00:37:45.882Z,103226.88
2023-02-06T00:40:12.750Z,103229.06
2023-02-06T00:42:39.391Z,103226.19
2023-02-06T00:45:06.898Z,103229.81
2023-02-06T00:47:35.454Z,103220.09
2023-02-06T00:50:03.700Z,103215.72
2023-02-06T00:52:30.474Z,103210.00
2023-02-06T00:54:57.038Z,103216.09
2023-02-06T00:57:23.714Z,103217.72
2023-02-06T00:59:50.260Z,103218.56
2023-02-06T01:02:16.923Z,103212.31
2023-02-06T01:04:43.524Z,103214.94
2023-02-06T01:07:10.467Z,103215.56
2023-02-06T01:09:37.139Z,103215.47
2023-02-06T01:12:03.836Z,103221.59
2023-02-06T01:14:30.571Z,103230.09
2023-02-06T01:16:57.191Z,103233.72
2023-02-06T01:19:26.713Z,103241.69
2023-02-06T01:21:53.370Z,103240.69
2023-02-06T01:24:19.858Z,103237.50
2023-02-06T01:26:46.471Z,103237.66
2023-02-06T01:29:13.072Z,103230.97
2023-02-06T01:31:40.728Z,103244.91
2023-02-06T01:34:08.028Z,103239.53
2023-02-06T01:36:35.727Z,103241.09
2023-02-06T01:39:02.303Z,103241.94
2023-02-06T01:41:29.215Z,103236.69
2023-02-06T01:44:13.018Z,103231.91
2023-02-06T01:46:41.162Z,103240.09
2023-02-06T01:49:12.180Z,103230.66
2023-02-06T01:51:39.720Z,103230.84
2023-02-06T01:54:08.900Z,103236.72
2023-02-06T01:56:47.036Z,103227.91
2023-02-06T01:59:14.188Z,103229.47
2023-02-06T02:01:41.776Z,103237.13
2023-02-06T02:04:16.247Z,103227.56
2023-02-06T02:06:43.126Z,103229.31
2023-02-06T02:09:09.736Z,103222.22
2023-02-06T02:11:41.678Z,103212.03
2023-02-06T02:14:12.421Z,103218.31
2023-02-06T02:17:01.028Z,103212.78
2023-02-06T02:19:33.689Z,103213.53
2023-02-06T02:22:25.105Z,103218.47
2023-02-06T02:25:17.988Z,103238.50
2023-02-06T02:27:50.371Z,103231.25
2023-02-06T02:31:05.181Z,103228.50
2023-02-06T02:38:30.559Z,103230.66
2023-02-06T02:41:13.174Z,103233.84
2023-02-06T02:44:15.790Z,103234.47
2023-02-06T02:46:51.950Z,103225.91
2023-02-06T02:49:23.694Z,103220.19
2023-02-06T02:51:51.571Z,103215.25
2023-02-06T02:54:18.546Z,103222.06
2023-02-06T02:56:45.393Z,103221.28
2023-02-06T02:59:28.778Z,103215.72
2023-02-06T03:02:04.575Z,103215.34
2023-02-06T03:04:37.625Z,103214.47
2023-02-06T03:07:32.463Z,103209.06
2023-02-06T03:10:13.382Z,103213.28
2023-02-06T03:12:45.029Z,103202.72
2023-02-06T03:15:31.032Z,103212.00
2023-02-06T03:18:12.801Z,103202.13
2023-02-06T03:20:43.510Z,103210.00
2023-02-06T03:23:14.585Z,103214.50
2023-02-06T03:25:45.102Z,103214.03
2023-02-06T03:28:20.465Z,103209.97
2023-02-06T03:30:48.938Z,103210.53
2023-02-06T03:33:19.027Z,103210.22
2023-02-06T03:35:46.365Z,103208.44
2023-02-06T03:38:13.712Z,103203.53
2023-02-06T03:40:44.558Z,103212.69
2023-02-06T03:43:18.442Z,103214.25
2023-02-06T03:45:52.433Z,103210.09
2023-02-06T03:48:23.808Z,103206.00
2023-02-06T03:50:54.206Z,103208.81
2023-02-06T03:53:24.573Z,103213.66
2023-02-06T03:55:57.796Z,103213.31
2023-02-06T03:58:24.855Z,103216.47
2023-02-06T04:00:52.353Z,103230.50
2023-02-06T04:03:21.394Z,103223.84
2023-02-06T04:05:48.351Z,103230.63
2023-02-06T04:08:15.307Z,103230.47
2023-02-06T04:10:41.902Z,103218.25
2023-02-06T04:13:08.440Z,103209.03
2023-02-06T04:15:35.317Z,103201.72
2023-02-06T04:18:02.827Z,103209.13
2023-02-06T04:20:30.238Z,103212.56
2023-02-06T04:22:57.878Z,103218.97
2023-02-06T04:25:24.951Z,103219.69
2023-02-06T04:27:51.705Z,103214.91
2023-02-06T04:30:18.683Z,103216.38
2023-02-06T04:32:45.401Z,103225.66
2023-02-06T04:35:11.988Z,103232.06
2023-02-06T04:37:38.737Z,103247.28
2023-02-06T04:40:05.797Z,103258.97
2023-02-06T04:42:32.488Z,103246.63
2023-02-06T04:44:59.021Z,103251.00
2023-02-06T04:47:25.678Z,103256.53
2023-02-06T04:49:52.270Z,103244.53
2023-02-06T04:52:18.837Z,103249.28
2023-02-06T04:54:45.338Z,103244.88
2023-02-06T04:57:11.910Z,103245.59
2023-02-06T04:59:38.421Z,103248.59
2023-02-06T05:02:05.122Z,103255.03
2023-02-06T05:04:31.673Z,103273.72
2023-02-06T05:06:58.414Z,103269.44
2023-02-06T05:09:24.902Z,103258.59
2023-02-06T05:11:51.503Z,103234.88
2023-02-06T05:14:18.054Z,103224.53
2023-02-06T05:16:45.106Z,103225.94
2023-02-06T05:19:11.613Z,103239.66
2023-02-06T05:21:38.274Z,103239.56
2023-02-06T05:24:05.192Z,103224.69
2023-02-06T05:26:31.806Z,103234.88
2023-02-06T05:28:58.446Z,103227.91
2023-02-06T05:31:25.101Z,103225.59
2023-02-06T05:33:52.454Z,103221.44
2023-02-06T05:36:20.161Z,103220.34
2023-02-06T05:38:47.421Z,103219.13
2023-02-06T05:41:14.598Z,103218.53
2023-02-06T05:43:41.370Z,103221.94
2023-02-06T05:46:07.996Z,103218.69
2023-02-06T05:48:35.140Z,103210.81
2023-02-06T05:51:02.097Z,103204.38
2023-02-06T05:53:28.672Z,103205.81
2023-02-06T05:55:56.095Z,103199.53
2023-02-06T05:58:22.782Z,103199.13
2023-02-06T06:00:49.329Z,103202.97
2023-02-06T06:03:15.954Z,103199.22
2023-02-06T06:05:42.704Z,103211.94
2023-02-06T06:08:09.234Z,103208.69
2023-02-06T06:10:35.861Z,103208.94
2023-02-06T06:13:02.461Z,103198.31
2023-02-06T06:15:29.102Z,103203.22
2023-02-06T06:17:55.908Z,103200.03
2023-02-06T06:20:22.983Z,103199.38
2023-02-06T06:22:49.594Z,103198.38
2023-02-06T06:25:16.729Z,103203.44
2023-02-06T06:27:43.560Z,103216.00
2023-02-06T06:30:10.955Z,103210.78
2023-02-06T06:32:37.470Z,103214.53
2023-02-06T06:35:04.909Z,103209.06
2023-02-06T06:37:31.481Z,103203.75
2023-02-06T06:39:58.063Z,103201.84
2023-02-06T06:42:24.623Z,103201.13
2023-02-06T06:44:51.134Z,103200.38
2023-02-06T06:47:17.605Z,103185.25
2023-02-06T06:49:44.118Z,103195.19
2023-02-06T06:52:23.035Z,103199.75
2023-02-06T06:54:52.508Z,103187.34
2023-02-06T06:57:19.833Z,103185.72
2023-02-06T06:59:46.478Z,103190.69
2023-02-06T07:02:13.003Z,103198.97
2023-02-06T07:04:39.765Z,103201.38
2023-02-06T07:07:06.377Z,103199.34
2023-02-06T07:09:32.926Z,103194.78
2023-02-06T07:11:59.501Z,103196.00
2023-02-06T07:14:26.128Z,103198.47
2023-02-06T07:16:52.713Z,103187.88
2023-02-06T07:19:19.432Z,103182.25
2023-02-06T07:21:46.051Z,103183.28
2023-02-06T07:24:12.571Z,103181.94
2023-02-06T07:26:39.126Z,103189.34
2023-02-06T07:29:06.142Z,103201.44
2023-02-06T07:31:32.728Z,103192.53
2023-02-06T07:34:00.046Z,103198.84
2023-02-06T07:36:26.533Z,103198.28
2023-02-06T07:38:53.174Z,103196.22
2023-02-06T07:41:19.671Z,103200.75
2023-02-06T07:43:46.307Z,103201.81
2023-02-06T07:46:13.031Z,103194.88
2023-02-06T07:48:39.673Z,103204.41
2023-02-06T07:51:08.572Z,103196.00
2023-02-06T07:53:35.777Z,103192.09
2023-02-06T07:56:02.746Z,103212.56
2023-02-06T07:58:29.299Z,103203.41
2023-02-06T08:00:56.101Z,103202.41
2023-02-06T08:03:22.697Z,103186.22
2023-02-06T08:05:49.218Z,103195.94
2023-02-06T08:08:15.739Z,103199.19
2023-02-06T08:10:42.267Z,103200.91
2023-02-06T08:13:08.816Z,103194.44
2023-02-06T08:15:35.710Z,103207.38
2023-02-06T08:18:02.394Z,103203.22
2023-02-06T08:20:28.849Z,103200.41
2023-02-06T08:22:55.494Z,103198.09
2023-02-06T08:25:22.098Z,103185.88
2023-02-06T08:27:53.559Z,103188.22
2023-02-06T08:30:21.032Z,103193.41
2023-02-06T08:32:47.661Z,103193.16
2023-02-06T08:35:14.390Z,103182.97
2023-02-06T08:37:40.867Z,103191.69
2023-02-06T08:40:08.775Z,103190.25
2023-02-06T08:42:35.907Z,103187.34
2023-02-06T08:45:02.626Z,103200.97
2023-02-06T08:47:29.229Z,103195.28
2023-02-06T08:49:55.922Z,103191.25
2023-02-06T08:52:23.209Z,103187.78
2023-02-06T08:54:51.631Z,103179.19
2023-02-06T08:57:18.299Z,103191.09
2023-02-06T08:59:45.062Z,103197.13
2023-02-06T09:02:11.725Z,103195.41
2023-02-06T09:04:39.178Z,103202.25
2023-02-06T09:07:06.007Z,103194.56
2023-02-06T09:09:32.638Z,103198.91
2023-02-06T09:12:03.573Z,103195.16
2023-02-06T09:14:30.889Z,103202.56
2023-02-06T09:16:58.152Z,103194.56
2023-02-06T09:19:25.992Z,103186.16
2023-02-06T09:21:53.564Z,103191.56
2023-02-06T09:24:20.494Z,103188.22
2023-02-06T09:26:59.337Z,103188.63
2023-02-06T09:29:31.948Z,103198.41
2023-02-06T09:31:59.641Z,103207.38
2023-02-06T09:34:28.096Z,103210.00
2023-02-06T09:36:56.625Z,103205.75
2023-02-06T09:39:24.524Z,103209.06
2023-02-06T09:41:55.192Z,103213.53
2023-02-06T09:44:31.757Z,103211.03
2023-02-06T09:47:17.043Z,103204.81
2023-02-06T09:49:48.937Z,103214.75
2023-02-06T09:52:35.251Z,103213.00
2023-02-06T09:55:23.277Z,103206.91
2023-02-06T09:58:03.974Z,103209.97
2023-02-06T10:00:43.622Z,103211.72
2023-02-06T10:03:32.026Z,103212.56
2023-02-06T10:06:19.517Z,103210.16
2023-02-06T10:08:58.647Z,103215.31
2023-02-06T10:11:51.161Z,103206.31
2023-02-06T10:14:56.833Z,103204.13
2023-02-06T10:17:27.126Z,103204.94
2023-02-06T10:20:12.575Z,103202.28
2023-02-06T10:23:02.182Z,103209.38
2023-02-06T10:25:37.521Z,103211.28
2023-02-06T10:28:24.115Z,103199.13
2023-02-06T10:31:19.882Z,103201.78
2023-02-06T10:33:58.678Z,103204.50
2023-02-06T10:37:10.302Z,103191.59
2023-02-06T10:40:01.727Z,103202.78
2023-02-06T10:42:28.399Z,103196.72
2023-02-06T10:45:21.015Z,103182.34
2023-02-06T10:48:21.783Z,103178.25
2023-02-06T10:50:54.065Z,103176.38
2023-02-06T10:53:46.781Z,103173.84
2023-02-06T10:56:16.940Z,103176.19
2023-02-06T10:58:53.241Z,103169.06
2023-02-06T11:01:26.456Z,103165.69
2023-02-06T11:04:03.482Z,103165.94
2023-02-06T11:06:31.591Z,103159.84
2023-02-06T11:08:58.667Z,103154.56
2023-02-06T11:11:32.186Z,103162.41
2023-02-06T11:14:05.088Z,103156.53
2023-02-06T11:16:35.321Z,103158.97
2023-02-06T11:19:16.244Z,103155.81
2023-02-06T11:21:52.840Z,103160.72
2023-02-06T11:24:23.606Z,103159.88
2023-02-06T11:26:55.384Z,103158.44
2023-02-06T11:29:26.407Z,103161.22
2023-02-06T11:31:59.100Z,103160.44
2023-02-06T11:34:32.762Z,103151.88
2023-02-06T11:37:01.122Z,103147.84
2023-02-06T11:39:39.287Z,103152.03
2023-02-06T11:42:13.443Z,103141.63
2023-02-06T11:44:44.044Z,103131.72
2023-02-06T11:47:33.301Z,103151.38
2023-02-06T11:50:22.402Z,103141.00
2023-02-06T11:52:49.103Z,103148.66
2023-02-06T11:55:30.661Z,103143.78
2023-02-06T11:58:01.603Z,103146.06
2023-02-06T12:00:28.818Z,103144.72
2023-02-06T12:02:55.691Z,103130.81
2023-02-06T12:05:26.530Z,103137.44
2023-02-06T12:08:02.223Z,103138.16
2023-02-06T12:10:33.026Z,103130.53
2023-02-06T12:13:12.978Z,103140.06
2023-02-06T12:15:47.286Z,103131.50
2023-02-06T12:18:20.504Z,103142.03
2023-02-06T12:20:52.861Z,103156.53
2023-02-06T12:23:25.702Z,103152.81
2023-02-06T12:25:57.553Z,103157.22
2023-02-06T12:28:30.401Z,103145.56
2023-02-06T12:31:04.810Z,103144.25
2023-02-06T12:33:42.601Z,103142.38
2023-02-06T12:36:34.026Z,103141.19
2023-02-06T12:39:22.410Z,103140.00
2023-02-06T12:42:27.729Z,103129.88
2023-02-06T12:45:20.024Z,103109.13
2023-02-06T12:47:53.323Z,103110.31
2023-02-06T12:50:33.962Z,103103.00
2023-02-06T12:53:12.429Z,103105.38
2023-02-06T12:55:49.957Z,103104.50
2023-02-06T12:58:50.514Z,103096.69
2023-02-06T13:01:40.165Z,103085.06
2023-02-06T13:04:23.483Z,103087.19
2023-02-06T13:06:56.490Z,103091.50
2023-02-06T13:09:30.503Z,103093.97
2023-02-06T13:12:19.452Z,103091.25
2023-02-06T13:14:52.696Z,103101.84
2023-02-06T13:17:31.518Z,103091.03
2023-02-06T13:20:15.212Z,103086.13
2023-02-06T13:22:50.986Z,103085.38
2023-02-06T13:25:29.558Z,103092.69
2023-02-06T13:28:01.167Z,103088.53
2023-02-06T13:30:31.051Z,103081.03
2023-02-06T13:33:08.584Z,103079.19
2023-02-06T13:35:35.571Z,103075.69
2023-02-06T13:38:24.077Z,103068.78
2023-02-06T13:41:12.284Z,103068.78
2023-02-06T13:43:41.089Z,103071.97
2023-02-06T13:46:12.869Z,103067.31
2023-02-06T13:48:54.892Z,103074.66
2023-02-06T13:51:46.768Z,103077.09
2023-02-06T13:54:50.528Z,103083.19
2023-02-06T13:57:50.463Z,103074.94
2023-02-06T14:00:23.405Z,103064.31
2023-02-06T14:02:54.205Z,103057.66
2023-02-06T14:05:31.217Z,103054.06
2023-02-06T14:08:12.478Z,103053.88
2023-02-06T14:11:19.218Z,103058.19
2023-02-06T14:14:17.173Z,103058.56
2023-02-06T14:16:53.234Z,103065.66
2023-02-06T14:20:07.720Z,103059.47
2023-02-06T14:22:50.995Z,103058.75
2023-02-06T14:25:47.013Z,103063.25
2023-02-06T14:28:39.651Z,103056.81
2023-02-06T14:31:14.939Z,103061.19
2023-02-06T14:34:07.439Z,103050.63
2023-02-06T14:36:37.030Z,103053.72
2023-02-06T14:39:41.238Z,103056.16
2023-02-06T14:42:22.545Z,103063.13
2023-02-06T14:44:56.927Z,103057.03
2023-02-06T14:47:27.920Z,103052.53
2023-02-06T14:49:56.490Z,103062.59
2023-02-06T14:52:26.212Z,103057.03
2023-02-06T14:54:53.171Z,103065.38
2023-02-06T14:57:27.666Z,103055.63
2023-02-06T15:00:01.345Z,103064.50
2023-02-06T15:02:34.091Z,103069.88
2023-02-06T15:05:02.193Z,103084.63
2023-02-06T15:07:37.449Z,103073.16
2023-02-06T15:10:07.552Z,103079.41
2023-02-06T15:12:34.986Z,103076.13
2023-02-06T15:15:16.363Z,103063.63
2023-02-06T15:17:43.781Z,103053.34
2023-02-06T15:20:34.565Z,103060.09
2023-02-06T15:23:18.153Z,103057.03
2023-02-06T15:25:54.070Z,103056.34
2023-02-06T15:28:25.534Z,103057.38
2023-02-06T15:30:58.812Z,103061.53
2023-02-06T15:33:28.919Z,103054.59
2023-02-06T15:35:58.989Z,103052.47
2023-02-06T15:38:27.752Z,103054.38
2023-02-06T15:41:06.970Z,103056.16
2023-02-06T15:43:35.826Z,103048.00
2023-02-06T15:46:05.271Z,103035.44
2023-02-06T15:48:43.619Z,103027.50
2023-02-06T15:51:27.991Z,103035.59
2023-02-06T15:54:16.482Z,103035.56
2023-02-06T15:56:46.912Z,103043.34
2023-02-06T15:59:20.788Z,103034.75
2023-02-06T16:01:48.753Z,103028.69
2023-02-06T16:04:32.259Z,103036.84
2023-02-06T16:07:13.742Z,103032.50
2023-02-06T16:09:52.612Z,103032.69
2023-02-06T16:12:21.206Z,103040.00
2023-02-06T16:15:01.680Z,103035.00
2023-02-06T16:17:34.417Z,103039.50
2023-02-06T16:20:07.499Z,103041.41
2023-02-06T16:22:38.164Z,103050.22
2023-02-06T16:25:21.467Z,103040.66
2023-02-06T16:27:51.119Z,103036.94
2023-02-06T16:30:30.894Z,103027.63
2023-02-06T16:33:00.579Z,103017.28
2023-02-06T16:35:27.107Z,103014.81
2023-02-06T16:37:54.795Z,103023.78
2023-02-06T16:40:21.487Z,103006.69
2023-02-06T16:42:48.076Z,103011.69
2023-02-06T16:45:18.987Z,103011.59
2023-02-06T16:47:46.197Z,103021.31
2023-02-06T16:50:13.586Z,103011.63
2023-02-06T16:52:45.819Z,103005.63
2023-02-06T16:55:23.481Z,103009.16
2023-02-06T16:57:53.908Z,103008.94
2023-02-06T17:00:24.603Z,103007.91
2023-02-06T17:02:52.249Z,103018.97
2023-02-06T17:05:21.688Z,103013.75
2023-02-06T17:07:51.186Z,103027.94
2023-02-06T17:10:21.180Z,103028.56
2023-02-06T17:12:48.648Z,103037.16
2023-02-06T17:15:17.539Z,103029.91
2023-02-06T17:17:44.506Z,103022.19
2023-02-06T17:20:29.152Z,103023.78
2023-02-06T17:22:55.752Z,103034.88
2023-02-06T17:25:22.287Z,103020.41
2023-02-06T17:27:48.888Z,103027.72
2023-02-06T17:30:21.430Z,103024.81
2023-02-06T17:32:48.214Z,103021.84
2023-02-06T17:35:15.290Z,103021.97
2023-02-06T17:37:42.155Z,103025.72
2023-02-06T17:40:11.550Z,103028.13
2023-02-06T17:42:38.282Z,103029.13
2023-02-06T17:45:05.199Z,103027.19
2023-02-06T17:47:31.745Z,103023.34
2023-02-06T17:49:58.503Z,103031.41
2023-02-06T17:52:25.124Z,103036.88
2023-02-06T17:54:52.456Z,103026.09
2023-02-06T17:57:19.188Z,103022.38
2023-02-06T17:59:45.769Z,103029.53
2023-02-06T18:02:14.212Z,103022.25
2023-02-06T18:04:41.217Z,103035.88
2023-02-06T18:07:08.097Z,103028.16
2023-02-06T18:09:34.598Z,103030.72
2023-02-06T18:12:01.201Z,103034.19
2023-02-06T18:14:27.838Z,103033.91
2023-02-06T18:16:54.432Z,103037.13
2023-02-06T18:19:24.672Z,103024.78
2023-02-06T18:21:51.542Z,103017.28
2023-02-06T18:24:18.154Z,103016.38
2023-02-06T18:26:44.783Z,103020.75
2023-02-06T18:29:11.393Z,103021.19
2023-02-06T18:31:38.551Z,103026.03
2023-02-06T18:34:07.970Z,103031.97
2023-02-06T18:36:36.194Z,103029.75
2023-02-06T18:39:04.077Z,103035.28
2023-02-06T18:41:49.088Z,103040.19
2023-02-06T18:44:16.039Z,103038.84
2023-02-06T18:46:42.777Z,103039.78
2023-02-06T18:49:09.393Z,103040.75
2023-02-06T18:51:35.912Z,103043.25
2023-02-06T18:54:03.292Z,103046.75
2023-02-06T18:56:30.593Z,103041.91
2023-02-06T18:58:57.168Z,103048.66
2023-02-06T19:01:24.806Z,103038.94
2023-02-06T19:03:53.085Z,103043.03
2023-02-06T19:06:28.801Z,103044.28
2023-02-06T19:08:56.916Z,103034.53
2023-02-06T19:11:24.050Z,103044.56
2023-02-06T19:13:50.766Z,103031.56
2023-02-06T19:16:19.608Z,103032.56
2023-02-06T19:18:48.129Z,103033.78
2023-02-06T19:21:17.956Z,103037.91
2023-02-06T19:23:46.513Z,103043.72
2023-02-06T19:26:15.650Z,103038.09
2023-02-06T19:28:43.193Z,103042.31
2023-02-06T19:31:11.785Z,103032.06
2023-02-06T19:33:40.709Z,103037.19
2023-02-06T19:36:12.066Z,103038.22
2023-02-06T19:38:39.510Z,103044.34
2023-02-06T19:41:14.890Z,103046.50
2023-02-06T19:43:42.397Z,103050.56
2023-02-06T19:46:12.519Z,103047.53
2023-02-06T19:48:42.020Z,103044.63
2023-02-06T19:51:12.344Z,103045.38
2023-02-06T19:53:45.195Z,103048.34
2023-02-06T19:56:14.134Z,103046.66
2023-02-06T19:58:41.705Z,103046.22
2023-02-06T20:01:13.366Z,103034.78
2023-02-06T20:03:40.415Z,103048.13
2023-02-06T20:06:11.380Z,103044.63
2023-02-06T20:08:39.912Z,103041.50
2023-02-06T20:11:13.339Z,103044.00
2023-02-06T20:13:41.045Z,103056.53
2023-02-06T20:16:17.936Z,103065.06
2023-02-06T20:18:45.322Z,103066.00
2023-02-06T20:21:31.282Z,103059.72
2023-02-06T20:23:59.618Z,103058.72
2023-02-06T20:26:29.300Z,103062.66
2023-02-06T20:28:56.331Z,103057.44
2023-02-06T20:31:23.278Z,103068.91
2023-02-06T20:33:50.165Z,103064.16
2023-02-06T20:36:21.827Z,103064.69
2023-02-06T20:38:50.637Z,103077.03
2023-02-06T20:41:18.480Z,103078.66
2023-02-06T20:43:47.827Z,103064.72
2023-02-06T20:46:18.024Z,103070.25
2023-02-06T20:48:46.561Z,103085.91
2023-02-06T20:51:14.511Z,103080.06
2023-02-06T20:53:41.108Z,103077.44
2023-02-06T20:56:12.274Z,103082.69
2023-02-06T20:58:39.157Z,103078.22
2023-02-06T21:01:16.615Z,103079.13
2023-02-06T21:03:45.065Z,103073.56
2023-02-06T21:06:12.243Z,103074.16
2023-02-06T21:08:38.973Z,103069.50
2023-02-06T21:11:08.576Z,103059.63
2023-02-06T21:13:35.336Z,103051.84
2023-02-06T21:16:02.537Z,103047.13
2023-02-06T21:18:31.328Z,103045.53
2023-02-06T21:21:09.361Z,103055.53
2023-02-06T21:23:37.469Z,103066.69
2023-02-06T21:26:05.107Z,103044.75
2023-02-06T21:28:33.528Z,103055.50
2023-02-06T21:31:06.377Z,103053.06
2023-02-06T21:33:33.633Z,103048.09
2023-02-06T21:36:02.034Z,103048.41
2023-02-06T21:38:29.055Z,103043.91
2023-02-06T21:40:55.564Z,103042.63
2023-02-06T21:43:22.147Z,103047.09
2023-02-06T21:45:48.713Z,103038.38
2023-02-06T21:48:15.418Z,103032.41
2023-02-06T21:50:42.004Z,103037.34
2023-02-06T21:53:09.352Z,103056.84
2023-02-06T21:55:42.194Z,103051.91
2023-02-06T21:58:09.373Z,103048.97
2023-02-06T22:00:35.947Z,103044.97
2023-02-06T22:03:03.105Z,103044.94
2023-02-06T22:05:29.886Z,103048.69
2023-02-06T22:07:58.217Z,103052.78
2023-02-06T22:10:24.985Z,103055.06
2023-02-06T22:12:51.645Z,103053.78
2023-02-06T22:15:18.522Z,103055.53
2023-02-06T22:17:45.127Z,103051.16
2023-02-06T22:20:11.627Z,103041.75
2023-02-06T22:22:38.632Z,103036.56
2023-02-06T22:25:05.652Z,103041.78
2023-02-06T22:27:32.830Z,103045.09
2023-02-06T22:29:59.354Z,103031.91
2023-02-06T22:32:26.019Z,103029.88
2023-02-06T22:34:53.842Z,103034.66
2023-02-06T22:37:20.796Z,103033.06
2023-02-06T22:39:47.396Z,103034.50
2023-02-06T22:42:13.949Z,103040.19
2023-02-06T22:44:40.448Z,103044.94
2023-02-06T22:47:07.133Z,103043.72
2023-02-06T22:49:33.751Z,103049.56
2023-02-06T22:52:00.275Z,103047.13
2023-02-06T22:54:26.940Z,103055.88
2023-02-06T22:56:53.599Z,103051.19
2023-02-06T22:59:24.158Z,103056.06
2023-02-06T23:01:58.628Z,103052.56
2023-02-06T23:04:28.412Z,103053.25
2023-02-06T23:06:55.778Z,103057.81
2023-02-06T23:09:31.695Z,103053.50
2023-02-06T23:11:58.736Z,103045.78
2023-02-06T23:14:26.226Z,103049.66
2023-02-06T23:16:52.918Z,103040.81
2023-02-06T23:19:20.379Z,103038.84
2023-02-06T23:21:48.934Z,103038.47
2023-02-06T23:24:15.813Z,103031.22
2023-02-06T23:26:45.609Z,103027.53
2023-02-06T23:29:17.657Z,103033.03
2023-02-06T23:31:45.566Z,103034.72
2023-02-06T23:34:13.507Z,103036.88
2023-02-06T23:36:40.154Z,103041.41
2023-02-06T23:39:06.798Z,103042.91
2023-02-06T23:41:33.910Z,103044.72
2023-02-06T23:44:04.296Z,103034.28
2023-02-06T23:46:32.918Z,103023.88
2023-02-06T23:48:59.411Z,103023.13
2023-02-06T23:51:26.659Z,103035.50
2023-02-06T23:53:53.268Z,103036.09
2023-02-06T23:56:23.058Z,103040.84
2023-02-06T23:58:50.636Z,103038.66
